Powell, TX (75153)

1:26 PM CDT on August 30, 2015 (GMT -0500)
Vista Ski Lakes | | Change Station
CLOSE
Current Station
Personal Weather Station
Location: Kerens, TX
Elevation: 367 ft
Nearby Weather Stations

Elev 367 ft 32.22 °N, 96.29 °W | Updated 3 minutes ago

Partly Cloudy
Partly Cloudy
89.6 °F
Feels Like 96 °F
N
0.0
Wind Variable Wind from SSW

Today
High -- | Low -- °F
--% Chance of Precip.
Yesterday
High -- | Low -- °F
Precip. -- in
6:59 AM 7:52 PM
Full, 99% visible
Pressure 30.01 in
Visibility 10.0 miles
Clouds Clear
Heat Index 96 °F
Dew Point 71 °F
Humidity 55%
Rainfall 0.00 in
Snow Depth Not available.
UV 11 out of 12
Pollen 8.00 out of 12
Air Quality Not available.
Flu Activity Not available.
METAR KCRS 301753Z AUTO 25004KT 10SM CLR 33/18 A3003 RMK AO2 SLP161 T03280178 10328 20244 58004
Pressure 30.01 in
Visibility 10.0 miles
Clouds Clear
Heat Index 96 °F
Dew Point 71 °F
Humidity 55%
Rainfall 0.00 in
Snow Depth Not available.
UV 11 out of 12
Pollen 8.00 out of 12
Air Quality Not available.
Flu Activity Not available.
METAR KCRS 301753Z AUTO 25004KT 10SM CLR 33/18 A3003 RMK AO2 SLP161 T03280178 10328 20244 58004
Nowcast | as of 12:52 PM CDT on August 30, 2015

Light rain showers will continue across portions of central Texas this afternoon. Rainfall amounts will be light...generally only a few hundredths of an inch at most. Later this afternoon...showers and thunderstorms may develop. The activity will primarily impact areas south of the I-20 corridor. Those engaged in outdoor activities should keep abreast of the weather. Move indoors immediately if lightning is seen or thunder is heard.

×

10-Day Weather Forecast

×

Almanac

Astronomy

Aug. 30, 2015 Rise Set
Actual Time
Civil Twilight
Nautical Twilight
Astronomical Twilight
Moon
Length of Visible Light
Length of Day
Tomorrow will be .
, % of the Moon is Illuminated

Today's Extremes

State Highs State Lows

Community

WunderPhotos

Upload Photos

1,851,029 photos uploaded!

WunderBlogs® & News

Nearby

Air Quality

  Air Quality AQ Index Pollutant
Not available.

Snow Depth

Station Depth Elevation

Earthquake Activity

City Distance Mag. Time & Date
Minimum magnitude displayed is 2.5.

Coastal Water Temperatures

Place Temperature

Stations

Nearby Weather Stations

Station Location Temp. Windchill Dew Point Humidity Wind Precip. Elev Updated Type